createdAt,value
2016-12-19T00:00:15.803Z,0
2016-12-19T00:01:16.109Z,0
2016-12-19T00:02:16.394Z,0
2016-12-19T00:03:15.749Z,0
2016-12-19T00:04:16.069Z,0
2016-12-19T00:05:15.718Z,0
2016-12-19T00:06:15.705Z,0
2016-12-19T00:07:15.717Z,0
2016-12-19T00:08:15.665Z,0
2016-12-19T00:09:15.957Z,0
2016-12-19T00:10:15.625Z,0
2016-12-19T00:11:15.925Z,0
2016-12-19T00:12:15.589Z,0
2016-12-19T00:13:15.571Z,0
2016-12-19T00:14:15.555Z,0
2016-12-19T00:15:15.856Z,0
2016-12-19T00:16:15.520Z,0
2016-12-19T00:17:15.811Z,0
2016-12-19T00:18:15.805Z,0
2016-12-19T00:19:15.463Z,0
2016-12-19T00:20:15.449Z,0
2016-12-19T00:21:15.776Z,0
2016-12-19T00:22:15.735Z,0
2016-12-19T00:23:15.409Z,0
2016-12-19T00:24:15.595Z,0
2016-12-19T00:25:15.361Z,0
2016-12-19T00:26:15.347Z,0
2016-12-19T00:27:15.327Z,0
2016-12-19T00:28:15.309Z,0
2016-12-19T00:29:15.287Z,0
2016-12-19T00:30:15.269Z,0
2016-12-19T00:31:15.561Z,0
2016-12-19T00:32:15.233Z,0
2016-12-19T00:33:15.527Z,0
2016-12-19T00:34:15.193Z,0
2016-12-19T00:35:15.176Z,0
2016-12-19T00:36:15.162Z,0
2016-12-19T00:37:15.143Z,0
2016-12-19T00:38:15.126Z,0
2016-12-19T00:39:15.729Z,0
2016-12-19T00:40:15.088Z,0
2016-12-19T00:41:15.386Z,0
2016-12-19T00:42:15.679Z,0
2016-12-19T00:43:15.033Z,0
2016-12-19T00:44:15.038Z,0
2016-12-19T00:45:14.996Z,0
2016-12-19T00:46:15.298Z,0
2016-12-19T00:47:14.988Z,0
2016-12-19T00:48:14.977Z,0
2016-12-19T00:49:14.926Z,0
2016-12-19T00:50:14.905Z,0
2016-12-19T00:51:14.940Z,0
2016-12-19T00:52:14.873Z,0
2016-12-19T00:53:14.852Z,0
2016-12-19T00:54:14.836Z,0
2016-12-19T00:55:14.815Z,0
2016-12-19T00:56:14.802Z,0
2016-12-19T00:57:14.779Z,0
2016-12-19T00:58:14.768Z,0
2016-12-19T00:59:14.748Z,0
2016-12-19T01:00:14.726Z,0
2016-12-19T01:01:14.714Z,0
2016-12-19T01:02:15.000Z,0
2016-12-19T01:03:14.678Z,0
2016-12-19T01:04:14.688Z,0
2016-12-19T01:05:14.944Z,0
2016-12-19T01:06:14.619Z,0
2016-12-19T01:07:14.603Z,0
2016-12-19T01:08:15.208Z,0
2016-12-19T01:09:14.570Z,0
2016-12-19T01:10:14.554Z,0
2016-12-19T01:11:14.562Z,0
2016-12-19T01:12:14.508Z,0
2016-12-19T01:13:14.494Z,0
2016-12-19T01:14:15.107Z,0
2016-12-19T01:15:14.461Z,0
2016-12-19T01:16:14.751Z,0
2016-12-19T01:17:14.735Z,0
2016-12-19T01:18:14.406Z,0
2016-12-19T01:19:14.701Z,0
2016-12-19T01:20:14.681Z,0
2016-12-19T01:21:14.344Z,0
2016-12-19T01:22:14.340Z,0
2016-12-19T01:23:14.631Z,0
2016-12-19T01:24:14.612Z,0
2016-12-19T01:25:14.594Z,0
2016-12-19T01:26:14.259Z,0
2016-12-19T01:27:14.861Z,0
2016-12-19T01:28:14.536Z,0
2016-12-19T01:29:14.517Z,0
2016-12-19T01:30:14.184Z,0
2016-12-19T01:31:14.167Z,0
2016-12-19T01:32:14.152Z,0
2016-12-19T01:33:14.133Z,0
2016-12-19T01:34:14.431Z,0
2016-12-19T01:35:14.090Z,0
2016-12-19T01:36:14.078Z,0
2016-12-19T01:37:14.068Z,0
2016-12-19T01:38:14.039Z,0
2016-12-19T01:39:14.019Z,0
2016-12-19T01:40:14.007Z,0
2016-12-19T01:41:13.990Z,0
2016-12-19T01:42:13.969Z,0
2016-12-19T01:43:14.664Z,0
2016-12-19T01:44:14.263Z,0
2016-12-19T01:45:13.924Z,0
2016-12-19T01:46:13.899Z,0
2016-12-19T01:47:13.878Z,0
2016-12-19T01:48:13.860Z,0
2016-12-19T01:49:14.160Z,0
2016-12-19T01:50:13.821Z,0
2016-12-19T01:51:13.809Z,0
2016-12-19T01:52:13.791Z,0
2016-12-19T01:53:13.771Z,0
2016-12-19T01:54:13.751Z,0
2016-12-19T01:55:14.048Z,0
2016-12-19T01:56:13.718Z,0
2016-12-19T01:57:14.007Z,0
2016-12-19T01:58:13.674Z,0
2016-12-19T01:59:13.976Z,0
2016-12-19T02:00:13.650Z,0
2016-12-19T02:01:13.624Z,0
2016-12-19T02:02:13.612Z,0
2016-12-19T02:03:13.588Z,0
2016-12-19T02:04:13.886Z,0
2016-12-19T02:05:13.552Z,0
2016-12-19T02:06:13.532Z,0
2016-12-19T02:07:13.837Z,0
2016-12-19T02:08:13.502Z,0
2016-12-19T02:09:13.810Z,0
2016-12-19T02:10:13.776Z,0
2016-12-19T02:11:13.444Z,0
2016-12-19T02:12:13.435Z,0
2016-12-19T02:13:13.405Z,0
2016-12-19T02:14:13.388Z,0
2016-12-19T02:15:13.374Z,0
2016-12-19T02:16:13.358Z,0
2016-12-19T02:17:13.340Z,0
2016-12-19T02:18:13.321Z,0
2016-12-19T02:19:13.608Z,0
2016-12-19T02:20:13.285Z,0
2016-12-19T02:21:13.261Z,0
2016-12-19T02:22:13.243Z,0
2016-12-19T02:23:13.872Z,0
2016-12-19T02:24:13.409Z,0
2016-12-19T02:25:13.193Z,0
2016-12-19T02:26:13.850Z,0
2016-12-19T02:27:13.469Z,0
2016-12-19T02:28:13.132Z,0
2016-12-19T02:29:13.115Z,0
2016-12-19T02:30:13.116Z,0
2016-12-19T02:31:13.086Z,0
2016-12-19T02:32:13.695Z,0
2016-12-19T02:33:13.390Z,0
2016-12-19T02:34:13.029Z,0
2016-12-19T02:35:13.322Z,0
2016-12-19T02:36:13.308Z,0
2016-12-19T02:37:12.978Z,0
2016-12-19T02:38:12.957Z,0
2016-12-19T02:39:12.938Z,0
2016-12-19T02:40:13.235Z,0
2016-12-19T02:41:12.903Z,0
2016-12-19T02:42:12.893Z,0
2016-12-19T02:43:12.866Z,0
2016-12-19T02:44:12.848Z,0
2016-12-19T02:45:12.840Z,0
2016-12-19T02:46:12.812Z,0
2016-12-19T02:47:12.795Z,0
2016-12-19T02:48:12.779Z,0
2016-12-19T02:49:12.757Z,0
2016-12-19T02:50:12.742Z,0
2016-12-19T02:51:12.722Z,0
2016-12-19T02:52:12.707Z,0
2016-12-19T02:53:12.891Z,0
2016-12-19T02:54:12.668Z,0
2016-12-19T02:55:12.650Z,0
2016-12-19T02:56:12.643Z,0
2016-12-19T02:57:12.936Z,0
2016-12-19T02:58:12.605Z,0
2016-12-19T02:59:12.583Z,0
2016-12-19T03:00:12.872Z,0
2016-12-19T03:01:12.539Z,0
2016-12-19T03:02:12.521Z,0
2016-12-19T03:03:12.508Z,0
2016-12-19T03:04:12.803Z,0
2016-12-19T03:05:12.469Z,0
2016-12-19T03:06:12.481Z,0
2016-12-19T03:07:12.440Z,0
2016-12-19T03:08:12.736Z,0
2016-12-19T03:09:12.404Z,0
2016-12-19T03:10:12.700Z,0
2016-12-19T03:11:12.362Z,0
2016-12-19T03:12:12.346Z,0
2016-12-19T03:13:12.326Z,0
2016-12-19T03:14:12.310Z,0
2016-12-19T03:15:12.294Z,0
2016-12-19T03:16:12.272Z,0
2016-12-19T03:17:12.257Z,0
2016-12-19T03:18:12.239Z,0
2016-12-19T03:19:12.220Z,0
2016-12-19T03:20:12.198Z,0
2016-12-19T03:21:12.497Z,0
2016-12-19T03:22:12.476Z,0
2016-12-19T03:23:12.147Z,0
2016-12-19T03:24:12.128Z,0
2016-12-19T03:25:12.428Z,0
2016-12-19T03:26:12.088Z,0
2016-12-19T03:27:12.073Z,0
2016-12-19T03:28:12.055Z,0
2016-12-19T03:29:12.349Z,0
2016-12-19T03:30:12.019Z,0
2016-12-19T03:31:11.999Z,0
2016-12-19T03:32:12.295Z,0
2016-12-19T03:33:11.965Z,0
2016-12-19T03:34:12.573Z,0
2016-12-19T03:35:11.928Z,0
2016-12-19T03:36:11.909Z,0
2016-12-19T03:37:11.891Z,0
2016-12-19T03:38:11.874Z,0
2016-12-19T03:39:11.853Z,0
2016-12-19T03:40:12.146Z,0
2016-12-19T03:41:12.162Z,0
2016-12-19T03:42:12.117Z,0
2016-12-19T03:43:11.786Z,0
2016-12-19T03:44:11.759Z,0
2016-12-19T03:45:12.055Z,0
2016-12-19T03:46:12.031Z,0
2016-12-19T03:47:11.706Z,0
2016-12-19T03:48:12.004Z,0
2016-12-19T03:49:11.982Z,0
2016-12-19T03:50:11.962Z,0
2016-12-19T03:51:11.949Z,0
2016-12-19T03:52:11.618Z,0
2016-12-19T03:53:11.907Z,0
2016-12-19T03:54:11.577Z,0
2016-12-19T03:55:11.560Z,0
2016-12-19T03:56:11.540Z,0
2016-12-19T03:57:11.522Z,0
2016-12-19T03:58:11.824Z,0
2016-12-19T03:59:11.805Z,0
2016-12-19T04:00:11.469Z,0
2016-12-19T04:01:11.769Z,0
2016-12-19T04:02:11.744Z,0
2016-12-19T04:03:11.722Z,0
2016-12-19T04:04:11.703Z,0
2016-12-19T04:05:11.376Z,0
2016-12-19T04:06:11.671Z,0
2016-12-19T04:07:11.645Z,0
2016-12-19T04:08:11.318Z,0
2016-12-19T04:09:11.302Z,0
2016-12-19T04:10:11.594Z,0
2016-12-19T04:11:11.297Z,0
2016-12-19T04:12:11.262Z,0
2016-12-19T04:13:11.549Z,0
2016-12-19T04:14:11.210Z,0
2016-12-19T04:15:11.507Z,0
2016-12-19T04:16:11.171Z,0
2016-12-19T04:17:11.150Z,0
2016-12-19T04:18:11.142Z,0
2016-12-19T04:19:11.111Z,0
2016-12-19T04:20:11.096Z,0
2016-12-19T04:21:11.077Z,0
2016-12-19T04:22:11.372Z,0
2016-12-19T04:23:11.357Z,0
2016-12-19T04:24:11.539Z,0
2016-12-19T04:25:11.318Z,0
2016-12-19T04:26:10.979Z,0
2016-12-19T04:27:10.970Z,0
2016-12-19T04:28:10.951Z,0
2016-12-19T04:29:11.321Z,0
2016-12-19T04:30:11.258Z,0
2016-12-19T04:31:10.904Z,0
2016-12-19T04:32:10.875Z,0
2016-12-19T04:33:11.198Z,0
2016-12-19T04:34:10.842Z,0
2016-12-19T04:35:11.153Z,0
2016-12-19T04:36:10.798Z,0
2016-12-19T04:37:10.780Z,0
2016-12-19T04:38:10.763Z,0
2016-12-19T04:39:10.741Z,0
2016-12-19T04:40:10.776Z,0
2016-12-19T04:41:10.705Z,0
2016-12-19T04:42:10.694Z,0
2016-12-19T04:43:10.670Z,0
2016-12-19T04:44:10.655Z,0
2016-12-19T04:45:10.949Z,0
2016-12-19T04:46:10.623Z,0
2016-12-19T04:47:10.911Z,0
2016-12-19T04:48:10.587Z,0
2016-12-19T04:49:10.563Z,0
2016-12-19T04:50:10.855Z,0
2016-12-19T04:51:11.150Z,0
2016-12-19T04:52:10.508Z,0
2016-12-19T04:53:10.486Z,0
2016-12-19T04:54:10.464Z,0
2016-12-19T04:55:10.764Z,0
2016-12-19T04:56:10.427Z,0
2016-12-19T04:57:10.413Z,0
2016-12-19T04:58:10.409Z,0
2016-12-19T04:59:10.691Z,0
2016-12-19T05:00:10.359Z,0
2016-12-19T05:01:10.342Z,0
2016-12-19T05:02:10.317Z,0
2016-12-19T05:03:10.303Z,0
2016-12-19T05:04:10.598Z,0
2016-12-19T05:05:10.583Z,0
2016-12-19T05:06:10.572Z,0
2016-12-19T05:07:10.228Z,0
2016-12-19T05:08:10.867Z,0
2016-12-19T05:09:10.194Z,0
2016-12-19T05:10:10.220Z,0
2016-12-19T05:11:10.493Z,0
2016-12-19T05:12:10.494Z,0
2016-12-19T05:13:10.121Z,0
2016-12-19T05:14:10.420Z,0
2016-12-19T05:15:10.395Z,0
2016-12-19T05:16:10.065Z,0
2016-12-19T05:17:10.045Z,0
2016-12-19T05:18:10.038Z,0
2016-12-19T05:19:10.013Z,0
2016-12-19T05:20:10.308Z,0
2016-12-19T05:21:10.522Z,0
2016-12-19T05:22:09.968Z,0
2016-12-19T05:23:10.564Z,0
2016-12-19T05:24:09.923Z,0
2016-12-19T05:25:10.533Z,0
2016-12-19T05:26:10.203Z,0
2016-12-19T05:27:09.865Z,0
2016-12-19T05:28:09.852Z,0
2016-12-19T05:29:09.834Z,0
2016-12-19T05:30:09.826Z,0
2016-12-19T05:31:09.792Z,0
2016-12-19T05:32:09.774Z,0
2016-12-19T05:33:09.754Z,0
2016-12-19T05:34:10.052Z,0
2016-12-19T05:35:09.724Z,0
2016-12-19T05:36:09.697Z,0
2016-12-19T05:37:09.685Z,0
2016-12-19T05:38:09.983Z,0
2016-12-19T05:39:09.966Z,0
2016-12-19T05:40:09.940Z,0
2016-12-19T05:41:09.922Z,0
2016-12-19T05:42:09.595Z,0
2016-12-19T05:43:09.605Z,0
2016-12-19T05:44:09.870Z,0
2016-12-19T05:45:09.851Z,0
2016-12-19T05:46:09.842Z,0
2016-12-19T05:47:09.822Z,0
2016-12-19T05:48:09.489Z,0
2016-12-19T05:49:09.462Z,0
2016-12-19T05:50:09.448Z,0
2016-12-19T05:51:10.132Z,0
2016-12-19T05:52:09.418Z,0
2016-12-19T05:53:09.398Z,0
2016-12-19T05:54:09.373Z,0
2016-12-19T05:55:09.353Z,0
2016-12-19T05:56:09.335Z,0
2016-12-19T05:57:09.324Z,0
2016-12-19T05:58:09.616Z,0
2016-12-19T05:59:09.282Z,0
2016-12-19T06:00:09.260Z,0
2016-12-19T06:01:09.244Z,0
2016-12-19T06:02:09.220Z,0
2016-12-19T06:03:09.203Z,0
2016-12-19T06:04:09.498Z,0
2016-12-19T06:05:09.168Z,0
2016-12-19T06:06:09.907Z,0
2016-12-19T06:07:09.470Z,0
2016-12-19T06:08:09.429Z,0
2016-12-19T06:09:09.102Z,0
2016-12-19T06:10:09.077Z,0
2016-12-19T06:11:09.060Z,0
2016-12-19T06:12:09.666Z,0
2016-12-19T06:13:09.334Z,0
2016-12-19T06:14:08.999Z,0
2016-12-19T06:15:08.988Z,0
2016-12-19T06:16:08.967Z,0
2016-12-19T06:17:08.948Z,0
2016-12-19T06:18:09.242Z,0
2016-12-19T06:19:09.561Z,0
2016-12-19T06:20:08.901Z,0
2016-12-19T06:21:09.187Z,0
2016-12-19T06:22:09.166Z,0
2016-12-19T06:23:08.840Z,0
2016-12-19T06:24:09.228Z,0
2016-12-19T06:25:08.810Z,0
2016-12-19T06:26:08.784Z,0
2016-12-19T06:27:08.765Z,0
2016-12-19T06:28:09.059Z,0
2016-12-19T06:29:08.730Z,0
2016-12-19T06:30:08.719Z,0
2016-12-19T06:31:08.720Z,0
2016-12-19T06:32:08.693Z,0
2016-12-19T06:33:08.679Z,0
2016-12-19T06:34:08.648Z,0
2016-12-19T06:35:08.626Z,0
2016-12-19T06:36:09.231Z,0
2016-12-19T06:37:08.585Z,0
2016-12-19T06:38:08.892Z,0
2016-12-19T06:39:08.543Z,0
2016-12-19T06:40:08.528Z,0
2016-12-19T06:41:09.136Z,0
2016-12-19T06:42:08.805Z,0
2016-12-19T06:43:08.784Z,0
2016-12-19T06:44:08.454Z,0
2016-12-19T06:45:08.435Z,0
2016-12-19T06:46:08.429Z,0
2016-12-19T06:47:08.401Z,0
2016-12-19T06:48:08.693Z,0
2016-12-19T06:49:08.358Z,0
2016-12-19T06:50:08.346Z,0
2016-12-19T06:51:08.642Z,0
2016-12-19T06:52:08.305Z,0
2016-12-19T06:53:08.602Z,0
2016-12-19T06:54:08.578Z,0
2016-12-19T06:55:08.566Z,0
2016-12-19T06:56:08.240Z,0
2016-12-19T06:57:08.215Z,0
2016-12-19T06:58:08.203Z,0
2016-12-19T06:59:08.501Z,0
2016-12-19T07:00:08.484Z,4
2016-12-19T07:01:08.451Z,4
2016-12-19T07:02:08.579Z,0
2016-12-19T07:03:08.427Z,0
2016-12-19T07:04:08.446Z,4
2016-12-19T07:05:08.068Z,4
2016-12-19T07:06:08.047Z,4
2016-12-19T07:07:08.035Z,4
2016-12-19T07:08:08.010Z,8
2016-12-19T07:09:07.995Z,4
2016-12-19T07:10:08.289Z,4
2016-12-19T07:11:07.951Z,8
2016-12-19T07:12:07.941Z,8
2016-12-19T07:13:08.236Z,8
2016-12-19T07:14:07.898Z,12
2016-12-19T07:15:07.885Z,12
2016-12-19T07:16:08.174Z,16
2016-12-19T07:17:08.156Z,16
2016-12-19T07:18:07.829Z,24
2016-12-19T07:19:08.116Z,24
2016-12-19T07:20:08.106Z,24
2016-12-19T07:21:07.767Z,28
2016-12-19T07:22:07.748Z,36
2016-12-19T07:23:07.741Z,36
2016-12-19T07:24:07.710Z,40
2016-12-19T07:25:08.035Z,44
2016-12-19T07:26:07.703Z,40
2016-12-19T07:27:07.654Z,44
2016-12-19T07:28:07.635Z,48
2016-12-19T07:29:07.618Z,48
2016-12-19T07:30:07.601Z,48
2016-12-19T07:31:07.585Z,52
2016-12-19T07:32:07.566Z,56
2016-12-19T07:33:07.546Z,56
2016-12-19T07:34:07.845Z,56
2016-12-19T07:35:07.509Z,68
2016-12-19T07:36:07.483Z,72
2016-12-19T07:37:07.471Z,72
2016-12-19T07:38:07.448Z,76
2016-12-19T07:39:07.430Z,84
2016-12-19T07:40:07.417Z,92
2016-12-19T07:41:07.397Z,92
2016-12-19T07:42:07.683Z,108
2016-12-19T07:43:07.360Z,128
2016-12-19T07:44:07.338Z,144
2016-12-19T07:45:07.647Z,160
2016-12-19T07:46:07.615Z,164
2016-12-19T07:47:07.287Z,156
2016-12-19T07:48:07.263Z,200
2016-12-19T07:49:07.596Z,232
2016-12-19T07:50:07.229Z,224
2016-12-19T07:51:07.222Z,236
2016-12-19T07:52:07.546Z,240
2016-12-19T07:53:07.509Z,252
2016-12-19T07:54:07.149Z,288
2016-12-19T07:55:07.455Z,276
2016-12-19T07:56:07.110Z,288
2016-12-19T07:57:07.097Z,308
2016-12-19T07:58:07.073Z,340
2016-12-19T07:59:07.366Z,392
2016-12-19T08:00:07.347Z,500
2016-12-19T08:01:07.018Z,584
2016-12-19T08:02:06.996Z,664
2016-12-19T08:03:06.981Z,756
2016-12-19T08:04:07.288Z,952
2016-12-19T08:05:06.945Z,916
2016-12-19T08:06:06.952Z,856
2016-12-19T08:07:07.221Z,916
2016-12-19T08:08:07.195Z,880
2016-12-19T08:09:06.867Z,1004
2016-12-19T08:10:06.847Z,1040
2016-12-19T08:11:07.477Z,1012
2016-12-19T08:12:06.822Z,1116
2016-12-19T08:13:06.791Z,1184
2016-12-19T08:14:06.776Z,1180
2016-12-19T08:15:07.068Z,1176
2016-12-19T08:16:06.734Z,1272
2016-12-19T08:17:06.715Z,1100
2016-12-19T08:18:07.013Z,1348
2016-12-19T08:19:06.681Z,1396
2016-12-19T08:20:06.664Z,1508
2016-12-19T08:21:06.645Z,1332
2016-12-19T08:22:06.620Z,1344
2016-12-19T08:23:06.909Z,1324
2016-12-19T08:24:06.895Z,1380
2016-12-19T08:25:06.771Z,1408
2016-12-19T08:26:06.742Z,1528
2016-12-19T08:27:07.059Z,1760
2016-12-19T08:28:06.883Z,1800
2016-12-19T08:29:06.808Z,1896
2016-12-19T08:30:06.783Z,1968
2016-12-19T08:31:06.449Z,1996
2016-12-19T08:32:06.436Z,1960
2016-12-19T08:33:06.411Z,1920
2016-12-19T08:34:06.424Z,1928
2016-12-19T08:35:06.376Z,1976
2016-12-19T08:36:06.668Z,1960
2016-12-19T08:37:06.336Z,1992
2016-12-19T08:38:06.317Z,1980
2016-12-19T08:39:06.300Z,1988
2016-12-19T08:40:06.599Z,1980
2016-12-19T08:41:06.262Z,2012
2016-12-19T08:42:06.245Z,2056
2016-12-19T08:43:06.854Z,2096
2016-12-19T08:44:06.211Z,2080
2016-12-19T08:45:06.185Z,2112
2016-12-19T08:46:06.166Z,2140
2016-12-19T08:47:06.149Z,2208
2016-12-19T08:48:06.130Z,2264
2016-12-19T08:49:06.119Z,2232
2016-12-19T08:50:06.098Z,2184
2016-12-19T08:51:06.079Z,2224
2016-12-19T08:52:06.053Z,2204
2016-12-19T08:53:06.037Z,2188
2016-12-19T08:54:06.018Z,2164
2016-12-19T08:55:05.995Z,2172
2016-12-19T08:56:05.975Z,2156
2016-12-19T08:57:06.266Z,2212
2016-12-19T08:58:05.967Z,2252
2016-12-19T08:59:05.916Z,2288
2016-12-19T09:00:05.901Z,2332
2016-12-19T09:01:06.198Z,2344
2016-12-19T09:02:05.864Z,2356
2016-12-19T09:03:05.843Z,2364
2016-12-19T09:04:06.139Z,2348
2016-12-19T09:05:05.823Z,2376
2016-12-19T09:06:05.791Z,2404
2016-12-19T09:07:05.770Z,2432
2016-12-19T09:08:06.067Z,2472
2016-12-19T09:09:05.735Z,2512
2016-12-19T09:10:05.713Z,2516
2016-12-19T09:11:05.692Z,2500
2016-12-19T09:12:05.674Z,2488
2016-12-19T09:13:05.658Z,2504
2016-12-19T09:14:05.952Z,2516
2016-12-19T09:15:06.563Z,2560
2016-12-19T09:16:05.599Z,2556
2016-12-19T09:17:05.581Z,2552
2016-12-19T09:18:05.879Z,2652
2016-12-19T09:19:05.540Z,2628
2016-12-19T09:20:05.521Z,2672
2016-12-19T09:21:05.834Z,2732
2016-12-19T09:22:05.490Z,2732
2016-12-19T09:23:05.788Z,2724
2016-12-19T09:24:05.780Z,2824
2016-12-19T09:25:05.745Z,2896
2016-12-19T09:26:05.411Z,2988
2016-12-19T09:27:05.393Z,3148
2016-12-19T09:28:05.689Z,3184
2016-12-19T09:29:05.407Z,3288
2016-12-19T09:30:05.335Z,3296
2016-12-19T09:31:05.627Z,3304
2016-12-19T09:32:05.301Z,3380
2016-12-19T09:33:05.281Z,3480
2016-12-19T09:34:05.267Z,3528
2016-12-19T09:35:05.252Z,3600
2016-12-19T09:36:05.227Z,3660
2016-12-19T09:37:05.213Z,3560
2016-12-19T09:38:05.182Z,3596
2016-12-19T09:39:05.484Z,3708
2016-12-19T09:40:05.462Z,3896
2016-12-19T09:41:05.148Z,4000
2016-12-19T09:42:05.429Z,4040
2016-12-19T09:43:05.113Z,4060
2016-12-19T09:44:05.706Z,4064
2016-12-19T09:45:05.080Z,4172
2016-12-19T09:46:05.362Z,4252
2016-12-19T09:47:05.355Z,4284
2016-12-19T09:48:05.008Z,4212
2016-12-19T09:49:05.325Z,4404
2016-12-19T09:50:05.596Z,4508
2016-12-19T09:51:05.596Z,4284
2016-12-19T09:52:05.261Z,4716
2016-12-19T09:53:05.228Z,4964
2016-12-19T09:54:04.891Z,5100
2016-12-19T09:55:04.884Z,5148
2016-12-19T09:56:04.856Z,5624
2016-12-19T09:57:04.840Z,6140
2016-12-19T09:58:05.133Z,6256
2016-12-19T09:59:05.125Z,6160
2016-12-19T10:00:04.788Z,6096
2016-12-19T10:01:05.091Z,6480
2016-12-19T10:02:04.754Z,6608
2016-12-19T10:03:04.761Z,6948
2016-12-19T10:04:05.044Z,6728
2016-12-19T10:05:04.783Z,7076
2016-12-19T10:06:04.998Z,7624
2016-12-19T10:07:04.677Z,7696
2016-12-19T10:08:04.653Z,7700
2016-12-19T10:09:04.950Z,7784
2016-12-19T10:10:04.621Z,8328
2016-12-19T10:11:04.918Z,8644
2016-12-19T10:12:04.903Z,8416
2016-12-19T10:13:04.885Z,8140
2016-12-19T10:14:04.564Z,8228
2016-12-19T10:15:04.544Z,8312
2016-12-19T10:16:04.532Z,8264
2016-12-19T10:17:04.520Z,8288
2016-12-19T10:18:04.514Z,8704
2016-12-19T10:19:04.492Z,8624
2016-12-19T10:20:04.470Z,7936
2016-12-19T10:21:04.461Z,6572
2016-12-19T10:22:05.087Z,7616
2016-12-19T10:23:04.434Z,8824
2016-12-19T10:24:04.419Z,7904
2016-12-19T10:25:04.609Z,6732
2016-12-19T10:26:04.397Z,6128
2016-12-19T10:27:04.383Z,6144
2016-12-19T10:28:04.361Z,6252
2016-12-19T10:29:04.361Z,6640
2016-12-19T10:30:04.341Z,7356
2016-12-19T10:31:04.328Z,7356
2016-12-19T10:32:04.320Z,7476
2016-12-19T10:33:04.304Z,7588
2016-12-19T10:34:04.286Z,7124
2016-12-19T10:35:04.278Z,7324
2016-12-19T10:36:04.260Z,7664
2016-12-19T10:37:04.257Z,8108
2016-12-19T10:38:04.236Z,8324
2016-12-19T10:39:04.220Z,10012
2016-12-19T10:40:04.220Z,9504
2016-12-19T10:41:04.519Z,8072
2016-12-19T10:42:04.499Z,7132
2016-12-19T10:43:04.168Z,7060
2016-12-19T10:44:04.473Z,7328
2016-12-19T10:45:04.142Z,7948
2016-12-19T10:46:04.137Z,7908
2016-12-19T10:47:04.768Z,8280
2016-12-19T10:48:04.111Z,8324
2016-12-19T10:49:04.126Z,6860
2016-12-19T10:50:04.085Z,7152
2016-12-19T10:51:04.383Z,5984
2016-12-19T10:52:04.073Z,6600
2016-12-19T10:53:04.049Z,7432
2016-12-19T10:54:04.039Z,5360
2016-12-19T10:55:04.025Z,5232
2016-12-19T10:56:04.328Z,7988
2016-12-19T10:57:04.308Z,7308
2016-12-19T10:58:04.313Z,7600
2016-12-19T10:59:04.312Z,8284
2016-12-19T11:00:04.295Z,8616
2016-12-19T11:01:04.280Z,8440
2016-12-19T11:02:03.941Z,7352
2016-12-19T11:03:03.928Z,8532
2016-12-19T11:04:03.914Z,6696
2016-12-19T11:05:04.212Z,6916
2016-12-19T11:06:03.890Z,7284
2016-12-19T11:07:03.877Z,7224
2016-12-19T11:08:03.868Z,7388
2016-12-19T11:09:03.853Z,8488
2016-12-19T11:10:03.865Z,9360
2016-12-19T11:11:03.831Z,9200
2016-12-19T11:12:04.129Z,10332
2016-12-19T11:13:03.807Z,10316
2016-12-19T11:14:04.107Z,9772
2016-12-19T11:15:04.092Z,10048
2016-12-19T11:16:03.801Z,10044
2016-12-19T11:17:03.764Z,9644
2016-12-19T11:18:03.746Z,9288
2016-12-19T11:19:03.737Z,8132
2016-12-19T11:20:04.049Z,7076
2016-12-19T11:21:03.713Z,6604
2016-12-19T11:22:03.701Z,6240
2016-12-19T11:23:03.697Z,6104
2016-12-19T11:24:03.683Z,5604
2016-12-19T11:25:03.673Z,5296
2016-12-19T11:26:04.030Z,5128
2016-12-19T11:27:03.965Z,5148
2016-12-19T11:28:04.114Z,5184
2016-12-19T11:29:03.946Z,5260
2016-12-19T11:30:03.780Z,5396
2016-12-19T11:31:03.911Z,5440
2016-12-19T11:32:03.590Z,5288
2016-12-19T11:33:03.575Z,4944
2016-12-19T11:34:03.876Z,4820
2016-12-19T11:35:03.551Z,4916
2016-12-19T11:36:03.590Z,4816
2016-12-19T11:37:03.837Z,4688
2016-12-19T11:38:03.513Z,4708
2016-12-19T11:39:03.495Z,4636
2016-12-19T11:40:03.483Z,4620
2016-12-19T11:41:03.476Z,4540
2016-12-19T11:42:03.768Z,4528
2016-12-19T11:43:03.445Z,4528
2016-12-19T11:44:03.428Z,4436
2016-12-19T11:45:03.732Z,4444
2016-12-19T11:46:03.717Z,4416
2016-12-19T11:47:03.384Z,4492
2016-12-19T11:48:03.380Z,4536
2016-12-19T11:49:03.363Z,4424
2016-12-19T11:50:03.348Z,4428
2016-12-19T11:51:03.331Z,4456
2016-12-19T11:52:03.319Z,4468
2016-12-19T11:53:03.629Z,4444
2016-12-19T11:54:03.290Z,4432
2016-12-19T11:55:03.901Z,4404
2016-12-19T11:56:03.570Z,4276
2016-12-19T11:57:03.557Z,4216
2016-12-19T11:58:03.229Z,4292
2016-12-19T11:59:03.530Z,4308
2016-12-19T12:00:03.198Z,4364
2016-12-19T12:01:03.182Z,4372
2016-12-19T12:02:03.170Z,4500
2016-12-19T12:03:03.469Z,4628
2016-12-19T12:04:03.139Z,4816
2016-12-19T12:05:03.126Z,5032
2016-12-19T12:06:03.733Z,5368
2016-12-19T12:07:03.098Z,5652
2016-12-19T12:08:03.087Z,5864
2016-12-19T12:09:03.114Z,6080
2016-12-19T12:10:03.366Z,6536
2016-12-19T12:11:03.044Z,8392
2016-12-19T12:12:03.696Z,10916
2016-12-19T12:13:03.348Z,12612
2016-12-19T12:14:03.005Z,12844
2016-12-19T12:15:02.980Z,12160
2016-12-19T12:16:02.965Z,11320
2016-12-19T12:17:02.951Z,11976
2016-12-19T12:18:02.935Z,13252
2016-12-19T12:19:02.928Z,14560
2016-12-19T12:20:02.911Z,15360
2016-12-19T12:21:02.954Z,14776
2016-12-19T12:22:02.885Z,13948
2016-12-19T12:23:02.888Z,13064
2016-12-19T12:24:02.860Z,12912
2016-12-19T12:25:03.070Z,12312
2016-12-19T12:26:02.837Z,12580
2016-12-19T12:27:02.828Z,12084
2016-12-19T12:28:02.815Z,12000
2016-12-19T12:29:02.804Z,5024
2016-12-19T12:30:02.794Z,10720
2016-12-19T12:31:02.788Z,10540
2016-12-19T12:32:03.091Z,10636
2016-12-19T12:33:02.772Z,11216
2016-12-19T12:34:03.074Z,11636
2016-12-19T12:35:03.385Z,11132
2016-12-19T12:36:02.750Z,10868
2016-12-19T12:37:03.378Z,10820
2016-12-19T12:38:02.766Z,10496
2016-12-19T12:39:02.721Z,13068
2016-12-19T12:40:02.718Z,13440
2016-12-19T12:41:03.344Z,13988
2016-12-19T12:42:02.706Z,13436
2016-12-19T12:43:02.692Z,13440
2016-12-19T12:44:02.686Z,12828
2016-12-19T12:45:02.680Z,12560
2016-12-19T12:46:02.674Z,12312
2016-12-19T12:47:02.675Z,12612
2016-12-19T12:48:02.658Z,12620
2016-12-19T12:49:02.656Z,12088
2016-12-19T12:50:02.651Z,9360
2016-12-19T12:51:02.641Z,10392
2016-12-19T12:52:02.635Z,9080
2016-12-19T12:53:02.630Z,4428
2016-12-19T12:54:02.940Z,9232
2016-12-19T12:55:02.620Z,9532
2016-12-19T12:56:02.933Z,10144
2016-12-19T12:57:02.608Z,9904
2016-12-19T12:58:02.612Z,10484
2016-12-19T12:59:02.608Z,11192
2016-12-19T13:00:02.593Z,11484
2016-12-19T13:01:02.595Z,11824
2016-12-19T13:02:02.895Z,12332
2016-12-19T13:03:02.580Z,12684
2016-12-19T13:04:02.573Z,12504
2016-12-19T13:05:02.893Z,12532
2016-12-19T13:06:02.883Z,12804
2016-12-19T13:07:02.555Z,12340
2016-12-19T13:08:02.552Z,11948
2016-12-19T13:09:02.864Z,11644
2016-12-19T13:10:02.854Z,11496
2016-12-19T13:11:02.536Z,10056
2016-12-19T13:12:02.532Z,8748
2016-12-19T13:13:02.526Z,8788
2016-12-19T13:14:02.529Z,8376
2016-12-19T13:15:02.515Z,8636
2016-12-19T13:16:02.514Z,8456
2016-12-19T13:17:02.555Z,6468
2016-12-19T13:18:02.504Z,7872
2016-12-19T13:19:02.497Z,8084
2016-12-19T13:20:02.489Z,8684
2016-12-19T13:21:02.488Z,9232
2016-12-19T13:22:02.482Z,9672
2016-12-19T13:23:02.479Z,10068
2016-12-19T13:24:02.790Z,10392
2016-12-19T13:25:02.461Z,11108
2016-12-19T13:26:02.460Z,11688
2016-12-19T13:27:02.463Z,11788
2016-12-19T13:28:02.760Z,11860
2016-12-19T13:29:02.756Z,11672
2016-12-19T13:30:02.434Z,11604
2016-12-19T13:31:02.751Z,11324
2016-12-19T13:32:02.740Z,11024
2016-12-19T13:33:02.421Z,10648
2016-12-19T13:34:02.415Z,10272
2016-12-19T13:35:02.405Z,10020
2016-12-19T13:36:02.402Z,9744
2016-12-19T13:37:02.447Z,9492
2016-12-19T13:38:02.396Z,9488
2016-12-19T13:39:02.388Z,9260
2016-12-19T13:40:02.696Z,9056
2016-12-19T13:41:02.379Z,8968
2016-12-19T13:42:02.434Z,8500
2016-12-19T13:43:02.375Z,8124
2016-12-19T13:44:02.393Z,7468
2016-12-19T13:45:02.354Z,7080
2016-12-19T13:46:02.666Z,6848
2016-12-19T13:47:02.338Z,5572
2016-12-19T13:48:05.267Z,4216
2016-12-19T13:49:02.332Z,3444
2016-12-19T13:50:02.325Z,3224
2016-12-19T13:51:02.739Z,3172
2016-12-19T13:52:02.621Z,3116
2016-12-19T13:53:02.611Z,3052
2016-12-19T13:54:02.288Z,3112
2016-12-19T13:55:02.281Z,3448
2016-12-19T13:56:02.273Z,3692
2016-12-19T13:57:02.277Z,3412
2016-12-19T13:58:02.572Z,3408
2016-12-19T13:59:02.254Z,3440
2016-12-19T14:00:02.252Z,3148
2016-12-19T14:01:02.572Z,2916
2016-12-19T14:02:02.235Z,2860